West Lincoln

*Note: All times are displayed in the local standard time of the station location.
**Rain - Equipment is designed to accurately record liquid precipitation; under conditions when precipitation is not in liquid form, the data displayed may not properly reflect rainfall values.

Date Max Temp
(°C)
Min Temp
(°C)
Avg Temp
(°C)
Rain (mm) Avg RH (%)
Fri, Dec 14, 2018 5.8 -1.5 2.7 2.4 93.1
Thu, Dec 13, 2018 5.7 -1.4 0.7 1.0 96.5
Wed, Dec 12, 2018 1.3 -7.9 -2.4 0.0 90.7
Tue, Dec 11, 2018 -1.3 -3.0 -1.9 0.0 86.5
Mon, Dec 10, 2018 -0.1 -3.4 -1.6 0.0 85.5
Sun, Dec 09, 2018 0.5 -9.3 -4.0 0.0 79.0
Sat, Dec 08, 2018 -0.8 -7.4 -4.1 0.0 79.2
DateTime Avg Temp (°C) Rain (mm) RH (%)
Sat, Dec 15, 2018 00:00 2.6 0.0 96.2
Fri, Dec 14, 2018 23:00 3.5 0.0 91.3
Fri, Dec 14, 2018 22:00 3.5 0.0 89.8
Fri, Dec 14, 2018 21:00 3.0 0.0 92.9
Fri, Dec 14, 2018 20:00 3.2 0.0 90.5
Fri, Dec 14, 2018 19:00 3.4 0.0 87.3
Fri, Dec 14, 2018 18:00 2.9 0.0 87.1
Fri, Dec 14, 2018 17:00 3.9 0.0 83.2
Fri, Dec 14, 2018 16:00 5.5 0.0 81.1
Fri, Dec 14, 2018 15:00 5.0 0.0 89.6
Fri, Dec 14, 2018 14:00 4.7 0.0 93.9
Fri, Dec 14, 2018 13:00 4.0 0.0 98.1
Fri, Dec 14, 2018 12:00 3.4 0.2 99.9
Fri, Dec 14, 2018 11:00 3.0 1.2 99.2
Fri, Dec 14, 2018 10:00 3.0 1.0 94.8
Fri, Dec 14, 2018 09:00 2.9 0.0 91.6
Fri, Dec 14, 2018 08:00 2.4 0.0 92.9
Fri, Dec 14, 2018 07:00 2.2 0.0 92.9
Fri, Dec 14, 2018 06:00 1.6 0.0 94.3
Fri, Dec 14, 2018 05:00 1.3 0.0 94.0
Fri, Dec 14, 2018 04:00 0.9 0.0 95.4
Fri, Dec 14, 2018 03:00 -0.4 0.0 99.8
Fri, Dec 14, 2018 02:00 0.5 0.0 99.6
Fri, Dec 14, 2018 01:00 -0.7 0.0 99.9
Fri, Dec 14, 2018 00:00 -0.8 0.0 98.9
Thu, Dec 13, 2018 23:00 -0.7 0.0 99.2
Thu, Dec 13, 2018 22:00 -0.2 0.0 99.9
Thu, Dec 13, 2018 21:00 -0.2 0.0 99.9
Thu, Dec 13, 2018 20:00 0.1 0.0 99.7
Thu, Dec 13, 2018 19:00 0.6 0.0 98.8
Thu, Dec 13, 2018 18:00 1.3 0.0 95.1
Thu, Dec 13, 2018 17:00 1.6 0.0 96.3
Thu, Dec 13, 2018 16:00 2.3 0.0 92.9
Thu, Dec 13, 2018 15:00 2.6 0.0 90.2
Thu, Dec 13, 2018 14:00 5.3 0.0 78.5
Thu, Dec 13, 2018 13:00 4.9 0.0 81.5
Thu, Dec 13, 2018 12:00 2.9 0.0 90.3
Thu, Dec 13, 2018 11:00 1.7 0.6 96.0
Thu, Dec 13, 2018 10:00 0.8 0.4 99.6
Thu, Dec 13, 2018 09:00 0.1 0.0 99.9
Thu, Dec 13, 2018 08:00 0.4 0.0 99.9
Thu, Dec 13, 2018 07:00 -0.2 0.0 99.9
Thu, Dec 13, 2018 06:00 -1.1 0.0 99.9
Thu, Dec 13, 2018 05:00 -1.2 0.0 99.9
Thu, Dec 13, 2018 04:00 -1.3 0.0 99.9
Thu, Dec 13, 2018 03:00 -1.2 0.0 99.9
Thu, Dec 13, 2018 02:00 -1.1 0.0 99.9
Thu, Dec 13, 2018 01:00 -1.2 0.0 99.0


asterix Register now to access more data! asterix